Latest Coastal Weather Observations for Maatsuyker Island

IDT60701

Issued at 7:22 am EDT Monday 23 January 2017 (issued every 10 minutes, with the page automatically refreshed every 10 minutes)

About coastal observations | Map of coastal stations | Coastal observations for TAS | Marine services | Other Formats
Station Details ID: 094041 Name: MAATSUYKER ISLAND LIGHTHOUSE Lat: -43.66 Lon: 146.27 Height: 146.5 m
Data from the previous 72 hours. | See also: Recent months at Maatsuyker Island
Date/Time
EDT
Temp
°C
Wind Pressure Rain since
9am
mm
Weather Cloud Vis
km
Sea
Height
m
Swell
Dir  Spd
kts
Gust
kts
hPa Trend Height
m
Period
s
Dir
23/07:00am 12.5 N 3 4 1008.2 - 0.2 - - - - - - -
23/06:30am 12.6 N 6 7 1008.3 - 0.2 - - - - - - -
23/06:00am 12.2 N 3 7 1008.4 F 0.2 Fine Mostly clear 30 <0.1 1.0 13 SW
23/05:30am 12.3 N 7 7 1008.5 - 0.2 - - - - - - -
23/05:00am 12.5 N 8 9 1008.4 - 0.2 - - - - - - -
23/04:30am 12.4 N 10 11 1008.4 - 0.2 - - - - - - -
23/04:00am 12.5 N 9 10 1008.5 - 0.2 - - - - - - -
23/03:30am 12.8 N 8 10 1008.9 - 0.2 - - - - - - -
23/03:00am 13.0 N 9 11 1009.3 - 0.2 - - - - - - -
23/02:30am 13.0 N 8 10 1009.6 - 0.2 - - - - - - -
23/02:00am 12.9 N 8 9 1010.0 - 0.2 - - - - - - -
23/01:30am 13.0 N 8 10 1010.2 - 0.2 - - - - - - -
23/01:00am 13.1 NNW 9 11 1010.6 - 0.2 - - - - - - -
23/12:30am 13.2 NNW 9 11 1011.0 - 0.2 - - - - - - -
23/12:00am 13.4 NNW 9 11 1011.2 - 0.2 - - - - - - -
 
Date/Time
EDT
Temp
°C
Wind Pressure Rain since
9am
mm
Weather Cloud Vis
km
Sea
Height
m
Swell
Dir  Spd
kts
Gust
kts
hPa Trend Height
m
Period
s
Dir
22/11:30pm 13.8 NNW 10 13 1011.6 - 0.2 - - - - - - -
22/11:00pm 13.7 NNW 15 19 1011.6 - 0.2 - - - - - - -
22/10:30pm 13.9 NNW 12 16 1012.2 - 0.2 - - - - - - -
22/10:00pm 14.0 NNW 15 19 1012.5 - 0.2 - - - - - - -
22/09:30pm 14.1 NNW 21 24 1012.2 - 0.2 - - - - - - -
22/09:00pm 14.2 NW 20 24 1012.0 - 0.2 - - - - - - -
22/08:30pm 14.5 NW 24 26 1011.9 - 0.2 - - - - - - -
22/08:00pm 14.7 NW 26 29 1011.7 - 0.2 - - - - - - -
22/07:30pm 14.9 NW 20 22 1012.1 - 0.2 - - - - - - -
22/07:00pm 15.1 NW 21 24 1011.9 - 0.2 - - - - - - -
22/06:30pm 16.0 NNW 20 25 1011.9 - 0.2 - - - - - - -
22/06:00pm 15.9 NNW 24 29 1011.6 - 0.2 - - - - - - -
22/05:30pm 15.6 NNW 27 30 1011.7 - 0.2 - - - - - - -
22/05:00pm 15.3 NNW 31 37 1011.8 - 0.2 - - - - - - -
22/04:30pm 15.3 NNW 28 33 1011.9 - 0.2 - - - - - - -
22/04:00pm 15.5 NNW 26 32 1012.1 - 0.2 - - - - - - -
22/03:30pm 15.1 NNW 27 32 1012.3 - 0.2 - - - - - - -
22/03:00pm 15.4 NNW 27 33 1012.4 - 0.2 - - - - - - -
22/02:30pm 15.3 NNW 27 34 1012.5 - 0.2 - - - - - - -
22/02:00pm 15.4 NNW 27 31 1012.7 - 0.2 - - - - - - -
22/01:30pm 15.1 NNW 25 31 1012.8 - 0.2 - - - - - - -
22/01:00pm 14.9 NNW 27 33 1012.9 - 0.2 - - - - - - -
22/12:30pm 14.6 NNW 29 36 1012.9 - 0.2 - - - - - - -
22/12:00pm 14.5 NNW 29 36 1012.6 - 0.2 - - - - - - -
22/11:30am 14.3 NNW 29 34 1012.7 - 0.2 - - - - - - -
22/11:00am 14.6 NNW 28 34 1012.7 - 0.2 - - - - - - -
22/10:30am 14.3 NNW 31 36 1012.7 - 0.2 - - - - - - -
22/10:00am 14.3 NNW 25 32 1013.1 - 0.0 - - - - - - -
22/09:31am 14.3 NNW 25 35 1013.0 - 0.0 - - - - - - -
22/09:30am 14.3 NNW 24 33 1013.1 - 0.0 - - - - - - -
22/09:27am 14.2 NNW 22 32 1013.2 - 0.0 - - - - - - -
22/09:00am 13.9 WNW 20 25 1013.3 R 0.2 Rain Mostly cloudy 18 1 2.0 13 SW
22/08:30am 13.7 NNW 18 23 1013.4 - 0.2 - - - - - - -
22/08:00am 13.5 NNW 19 26 1013.1 - 0.2 - - - - - - -
22/07:30am 13.5 NNW 21 28 1012.7 - 0.2 - - - - - - -
22/07:00am 13.3 NNW 22 29 1012.4 - 0.2 - - - - - - -
22/06:30am 13.3 NNW 21 28 1012.3 - 0.2 - - - - - - -
22/06:00am 13.2 NW 20 27 1011.9 F 0.2 Haze Mostly cloudy 25 1 2.0 13 SW
22/05:30am 13.2 NNW 20 25 1012.0 - 0.2 - - - - - - -
22/05:00am 13.2 NNW 20 25 1011.9 - 0.2 - - - - - - -
22/04:30am 13.1 NNW 19 24 1012.1 - 0.2 - - - - - - -
22/04:00am 13.2 NNW 18 23 1012.2 - 0.2 - - - - - - -
22/03:30am 13.1 NNW 18 23 1012.2 - 0.2 - - - - - - -
22/03:00am 13.1 NNW 17 22 1012.0 - 0.2 - - - - - - -
22/02:30am 13.2 NNW 15 20 1012.3 - 0.2 - - - - - - -
22/02:00am 13.4 NNW 18 21 1012.6 - 0.2 - - - - - - -
22/01:30am 13.2 NNW 21 25 1012.7 - 0.2 - - - - - - -
22/01:00am 13.3 NNW 22 26 1012.9 - 0.2 - - - - - - -
22/12:30am 13.3 NNW 23 27 1013.1 - 0.2 - - - - - - -
22/12:00am 13.3 NNW 24 27 1013.0 - 0.2 - - - - - - -
 
Date/Time
EDT
Temp
°C
Wind Pressure Rain since
9am
mm
Weather Cloud Vis
km
Sea
Height
m
Swell
Dir  Spd
kts
Gust
kts
hPa Trend Height
m
Period
s
Dir
21/11:30pm 13.1 NNW 25 29 1013.2 - 0.2 - - - - - - -
21/11:00pm 13.1 NW 27 30 1013.4 - 0.2 - - - - - - -
21/10:30pm 12.9 NW 29 34 1013.2 - 0.2 - - - - - - -
21/10:00pm 12.9 NW 28 31 1013.2 - 0.2 - - - - - - -
21/09:30pm 12.2 NW 27 31 1013.4 - 0.2 - - - - - - -
21/09:00pm 13.4 NW 30 34 1012.7 - 0.0 - - - - - - -
21/08:30pm 13.6 NNW 30 35 1012.3 - 0.0 - - - - - - -
21/08:00pm 13.6 NW 31 35 1012.3 - 0.0 - - - - - - -
21/07:30pm 13.7 NW 30 34 1012.0 - 0.0 - - - - - - -
21/07:00pm 13.7 NW 31 34 1011.5 - 0.0 - - - - - - -
21/06:30pm 13.7 NW 31 34 1011.3 - 0.0 - - - - - - -
21/06:00pm 14.0 NW 31 33 1011.1 - 0.0 - - - - - - -
21/05:30pm 14.3 NW 32 35 1011.0 - 0.0 - - - - - - -
21/05:00pm 14.6 NW 30 34 1011.0 - 0.0 - - - - - - -
21/04:30pm 14.4 NNW 29 32 1011.1 - 0.0 - - - - - - -
21/04:00pm 14.1 NNW 28 32 1011.0 - 0.0 - - - - - - -
21/03:30pm 14.0 NW 30 33 1010.9 - 0.0 - - - - - - -
21/03:00pm 12.7 NW 33 39 1010.8 - 0.0 - - - - - - -
21/02:30pm 14.3 NW 30 34 1010.6 - 0.0 - - - - - - -
21/02:00pm 14.3 NW 31 33 1010.4 - 0.0 - - - - - - -
21/01:30pm 14.4 NW 29 32 1010.3 - 0.0 - - - - - - -
21/01:00pm 13.8 NW 29 33 1010.1 - 0.0 - - - - - - -
21/12:30pm 14.4 NW 27 31 1010.1 - 0.0 - - - - - - -
21/12:00pm 14.6 NW 27 31 1010.1 - 0.0 - - - - - - -
21/11:30am 13.6 NW 30 34 1009.7 - 0.0 - - - - - - -
21/11:00am 14.0 NW 31 34 1009.3 - 0.0 - - - - - - -
21/10:30am 13.6 WNW 29 33 1009.1 - 0.0 - - - - - - -
21/10:00am 13.4 NW 33 36 1008.3 - 0.0 - - - - - - -
21/09:30am 13.4 NW 35 40 1007.4 - 0.0 - - - - - - -
21/09:00am 13.4 NNW 36 41 1006.5 R 0.8 Recent precip. Mostly cloudy 25 2 1.5 13 SW
21/08:46am 13.2 NNW 34 45 1006.5 - 0.8 - - - - - - -
21/08:30am 13.0 NNW 33 40 1006.1 - 0.8 - - - - - - -
21/08:00am 13.2 NNW 29 34 1006.4 - 0.8 - - - - - - -
21/07:30am 12.9 NNW 31 38 1005.9 - 0.8 - - - - - - -
21/07:00am 12.8 NNW 29 34 1005.9 - 0.8 - - - - - - -
21/06:30am 12.7 NNW 27 34 1005.6 - 0.8 - - - - - - -
21/06:00am 12.6 NNW 29 33 1005.6 R 0.8 Rain Cloudy 25 1 1.5 15 W
21/05:30am 12.4 NNW 31 36 1005.4 - 0.8 - - - - - - -
21/05:00am 12.3 NW 32 36 1005.2 - 0.8 - - - - - - -
21/04:30am 12.3 NW 31 34 1004.9 - 0.8 - - - - - - -
21/04:00am 12.2 NW 31 35 1004.9 - 0.8 - - - - - - -
21/03:30am 12.4 NW 31 35 1004.7 - 0.8 - - - - - - -
21/03:00am 12.2 NW 32 35 1004.5 - 0.8 - - - - - - -
21/02:30am 12.2 NW 31 35 1004.8 - 0.8 - - - - - - -
21/02:00am 11.9 NW 26 29 1004.9 - 0.8 - - - - - - -
21/01:30am 12.0 NW 28 33 1005.0 - 0.8 - - - - - - -
21/01:00am 11.8 NW 27 31 1005.1 - 0.8 - - - - - - -
21/12:30am 11.7 NW 25 28 1005.1 - 0.8 - - - - - - -
21/12:00am 11.6 NW 24 29 1004.9 - 0.8 - - - - - - -
 
Date/Time
EDT
Temp
°C
Wind Pressure Rain since
9am
mm
Weather Cloud Vis
km
Sea
Height
m
Swell
Dir  Spd
kts
Gust
kts
hPa Trend Height
m
Period
s
Dir
20/11:30pm 11.1 WNW 23 26 1004.9 - 0.8 - - - - - - -
20/11:00pm 11.3 WNW 20 25 1005.1 - 0.8 - - - - - - -
20/10:30pm 11.3 WNW 21 25 1005.1 - 0.8 - - - - - - -
20/10:00pm 11.4 W 18 23 1004.9 - 0.8 - - - - - - -
20/09:30pm 11.4 W 15 21 1004.9 - 0.8 - - - - - - -
20/09:00pm 11.5 W 14 19 1004.2 - 0.8 - - - - - - -
20/08:30pm 11.5 W 11 15 1003.9 - 0.8 - - - - - - -
20/08:00pm 12.1 W 11 14 1003.3 - 0.8 - - - - - - -
20/07:30pm 12.1 W 13 19 1003.5 - 0.8 - - - - - - -
20/07:00pm 13.3 W 11 15 1002.8 - 0.8 - - - - - - -
20/06:30pm 13.3 WSW 12 17 1002.5 - 0.8 - - - - - - -
20/06:00pm 12.3 WSW 12 16 1001.8 - 0.8 - - - - - - -
20/05:30pm 12.8 SW 13 17 1001.7 - 0.8 - - - - - - -
20/05:00pm 12.5 SSW 14 18 1001.6 - 0.8 - - - - - - -
20/04:30pm 13.4 SSW 16 19 1000.6 - 0.8 - - - - - - -
20/04:00pm 14.0 SSW 15 19 999.8 - 0.8 - - - - - - -
20/03:30pm 13.5 S 11 15 999.3 - 0.8 - - - - - - -
20/03:00pm 14.5 SSW 8 10 999.3 - 0.8 - - - - - - -
20/02:30pm 14.4 S 10 12 999.5 - 0.8 - - - - - - -
20/02:00pm 14.9 SSE 9 11 999.2 - 0.8 - - - - - - -
20/01:30pm 14.4 ESE 7 10 999.2 - 0.8 - - - - - - -
20/01:00pm 14.2 N 3 5 999.1 - 0.6 - - - - - - -
20/12:30pm 13.9 NNE 2 4 999.0 - 0.6 - - - - - - -
20/12:00pm 12.9 NNW 1 4 998.9 - 0.6 - - - - - - -
20/11:30am 12.6 N 3 8 998.8 - 0.6 - - - - - - -
20/11:00am 12.3 NNW 4 6 998.7 - 0.6 - - - - - - -
20/10:30am 11.6 NNW 4 8 998.8 - 0.4 - - - - - - -
20/10:00am 11.5 N 5 10 999.2 - 0.0 - - - - - - -
20/09:30am 11.9 N 4 8 999.4 - 0.0 - - - - - - -
20/09:00am 11.4 ENE 8 13 999.8 F 8.4 Rain Cloudy 15 <0.1 0.5 11 SW
20/08:30am 11.2 ENE 8 11 1000.3 - 8.4 - - - - - - -
20/08:00am 11.2 NNE 4 8 1000.6 - 8.4 - - - - - - -
20/07:30am 11.0 CALM 0 0 1000.9 - 8.4 - - - - - - -

Other Formats:

Comma delimited format used in spreadsheet applications
http://www.bom.gov.au/fwo/IDT60701/IDT60701.94962.axf

JavaScript Object Notation format (JSON) in row-major order
http://www.bom.gov.au/fwo/IDT60701/IDT60701.94962.json